Time;durP1;ratioP1;P1;durP2;ratioP2;P2;SDS_P1;SDS_P2;PMS_P1;PMS_P2;Temp;Humidity;BMP_temperature;BMP_pressure;BME280_temperature;BME280_humidity;BME280_pressure;Samples;Min_cycle;Max_cycle;Signal;HPM_P1;HPM_P2
2023/03/20 00:00:23;;;;;;;4.63;2.03;;;;;;;9.46;100.00;100579.16;20768800;28;20614;-70
2023/03/20 00:10:24;;;;;;;4.88;1.98;;;;;;;9.45;100.00;100595.72;20760979;28;20050;-69
2023/03/20 00:20:25;;;;;;;4.35;2.00;;;;;;;9.37;100.00;100594.06;20766029;28;20131;-71
2023/03/20 00:30:27;;;;;;;4.13;1.92;;;;;;;9.24;100.00;100588.03;20767469;28;20061;-70
2023/03/20 00:40:28;;;;;;;5.60;2.50;;;;;;;9.15;100.00;100590.72;20869102;23;20073;-75
2023/03/20 00:50:30;;;;;;;4.50;2.45;;;;;;;9.00;100.00;100604.75;20782649;28;20046;-73
2023/03/20 01:00:31;;;;;;;7.22;2.78;;;;;;;8.93;100.00;100614.38;20763340;28;20461;-72
2023/03/20 01:10:32;;;;;;;5.22;2.70;;;;;;;8.96;100.00;100608.28;20766259;28;20066;-72
2023/03/20 01:20:33;;;;;;;5.72;3.25;;;;;;;8.96;100.00;100608.28;20781002;28;20095;-73
2023/03/20 01:30:35;;;;;;;7.05;3.40;;;;;;;9.03;100.00;100614.31;20767717;28;20435;-72
2023/03/20 01:40:36;;;;;;;7.15;3.75;;;;;;;8.97;100.00;100623.94;20760400;28;20050;-73
2023/03/20 01:50:37;;;;;;;6.88;3.40;;;;;;;9.05;100.00;100623.00;20776113;28;20141;-73
2023/03/20 02:00:39;;;;;;;7.50;4.15;;;;;;;9.06;100.00;100628.22;20779074;28;20132;-74
2023/03/20 02:10:40;;;;;;;7.28;4.20;;;;;;;9.06;100.00;100637.81;20780200;28;20060;-72
2023/03/20 02:20:41;;;;;;;8.07;4.53;;;;;;;9.02;100.00;100642.19;20777165;28;20084;-72
2023/03/20 02:30:42;;;;;;;8.40;4.90;;;;;;;9.02;100.00;100628.25;20770192;28;20081;-72
2023/03/20 02:40:44;;;;;;;11.75;4.78;;;;;;;9.06;100.00;100640.44;20771462;28;20358;-73
2023/03/20 02:50:46;;;;;;;8.18;4.72;;;;;;;8.97;100.00;100641.34;20773257;28;20448;-73
2023/03/20 03:00:47;;;;;;;8.27;5.53;;;;;;;8.92;100.00;100648.34;20771113;28;20489;-72
2023/03/20 03:10:48;;;;;;;11.18;6.20;;;;;;;8.81;100.00;100648.34;20774203;28;20100;-72
2023/03/20 03:20:49;;;;;;;11.27;6.78;;;;;;;8.78;100.00;100648.38;20777153;28;20087;-72
2023/03/20 03:30:52;;;;;;;13.80;7.30;;;;;;;8.75;100.00;100661.44;20770861;28;20053;-72
2023/03/20 03:40:53;;;;;;;12.93;6.88;;;;;;;8.79;100.00;100641.44;20776895;28;20092;-71
2023/03/20 03:50:55;;;;;;;13.43;7.78;;;;;;;8.78;100.00;100634.47;20771373;28;20045;-72
2023/03/20 04:00:56;;;;;;;11.93;7.10;;;;;;;8.80;100.00;100646.63;20767397;28;20046;-74
2023/03/20 04:10:57;;;;;;;13.23;8.82;;;;;;;8.93;100.00;100653.53;20766312;28;20424;-73
2023/03/20 04:20:58;;;;;;;15.48;9.40;;;;;;;8.90;100.00;100666.59;20777327;28;20053;-73
2023/03/20 04:31:00;;;;;;;14.98;10.02;;;;;;;8.90;100.00;100679.66;20766397;28;20054;-73
2023/03/20 04:41:02;;;;;;;17.15;10.43;;;;;;;8.93;100.00;100669.22;20762905;28;20135;-73
2023/03/20 04:51:03;;;;;;;15.57;9.63;;;;;;;8.91;100.00;100665.75;20764080;28;20576;-72
2023/03/20 05:01:05;;;;;;;16.65;10.50;;;;;;;8.83;100.00;100677.97;20764674;28;20057;-73
2023/03/20 05:11:07;;;;;;;17.05;11.68;;;;;;;8.88;100.00;100676.19;20769326;28;20097;-73
2023/03/20 05:21:08;;;;;;;16.05;10.70;;;;;;;8.88;100.00;100681.41;20768987;28;20049;-73
2023/03/20 05:31:09;;;;;;;20.45;11.13;;;;;;;8.94;100.00;100681.38;20777270;28;20354;-74
2023/03/20 05:41:11;;;;;;;19.50;11.35;;;;;;;8.96;100.00;100697.06;20777495;28;20065;-72
2023/03/20 05:51:12;;;;;;;17.73;11.25;;;;;;;9.05;100.00;100683.06;20781759;28;20505;-73
2023/03/20 06:01:17;;;;;;;17.27;11.05;;;;;;;9.13;100.00;100682.16;20775125;28;20202;-72
2023/03/20 06:11:18;;;;;;;20.48;12.30;;;;;;;9.24;100.00;100706.47;20771282;28;20050;-72
2023/03/20 06:21:19;;;;;;;22.08;12.55;;;;;;;9.38;100.00;100718.59;20774765;28;20046;-74
2023/03/20 06:31:21;;;;;;;22.80;13.20;;;;;;;9.15;100.00;100737.00;20776269;28;20069;-72
2023/03/20 06:41:22;;;;;;;22.88;13.25;;;;;;;9.20;100.00;100745.72;20777651;28;20108;-73
2023/03/20 06:51:36;;;;;;;24.02;13.40;;;;;;;9.39;100.00;100751.69;20766766;28;20053;-73
2023/03/20 07:01:37;;;;;;;26.08;13.15;;;;;;;9.42;100.00;100751.69;20763653;28;20056;-71
2023/03/20 07:11:39;;;;;;;24.05;13.10;;;;;;;9.58;100.00;100765.53;20770522;28;20087;-72
2023/03/20 07:21:41;;;;;;;22.15;12.65;;;;;;;9.60;100.00;100753.34;20771482;28;20102;-72
2023/03/20 07:31:42;;;;;;;23.90;14.07;;;;;;;9.64;100.00;100757.66;20766238;28;20085;-72
2023/03/20 07:41:43;;;;;;;23.55;13.82;;;;;;;9.65;100.00;100751.56;20762795;28;20049;-72
2023/03/20 07:51:45;;;;;;;20.67;12.43;;;;;;;9.79;100.00;100765.41;20771187;28;20129;-72
2023/03/20 08:01:46;;;;;;;18.98;11.40;;;;;;;9.55;100.00;100762.94;20774803;28;20100;-72
2023/03/20 08:11:48;;;;;;;21.38;11.85;;;;;;;9.71;100.00;100777.66;20768889;28;20500;-72
2023/03/20 08:21:51;;;;;;;20.60;11.45;;;;;;;9.87;100.00;100781.03;20770958;28;20423;-72
2023/03/20 08:31:52;;;;;;;20.40;10.68;;;;;;;10.20;100.00;100785.16;20769787;28;20104;-72
2023/03/20 08:41:53;;;;;;;16.98;9.23;;;;;;;10.14;100.00;100785.22;20749653;28;20049;-70
2023/03/20 08:51:55;;;;;;;15.77;9.52;;;;;;;10.00;100.00;100794.03;20764223;28;20050;-69
2023/03/20 09:01:56;;;;;;;17.02;9.15;;;;;;;10.46;100.00;100798.06;20783797;28;20120;-70
2023/03/20 09:22:35;;;;;;;11.93;6.70;;;;;;;10.89;100.00;100811.63;20769078;28;20104;-77
2023/03/20 09:43:24;;;;;;;;;;;;;;;11.68;100.00;100829.88;20752592;28;20116;-77
2023/03/20 09:53:25;;;;;;;10.45;5.30;;;;;;;12.14;100.00;100818.78;20760049;28;19929;-77
2023/03/20 10:03:26;;;;;;;12.13;5.10;;;;;;;12.31;100.00;100822.00;20758463;28;20549;-76
2023/03/20 10:13:43;;;;;;;9.27;4.53;;;;;;;11.99;100.00;100812.00;20755983;28;20068;-77
2023/03/20 10:34:35;;;;;;;17.23;5.40;;;;;;;13.24;100.00;100808.97;20752174;28;20113;-77
2023/03/20 10:44:36;;;;;;;7.50;4.00;;;;;;;13.16;100.00;100800.34;20742552;28;20045;-77
2023/03/20 11:04:47;;;;;;;11.82;4.68;;;;;;;13.64;100.00;100776.56;20830907;28;20045;-70
2023/03/20 11:14:48;;;;;;;7.00;3.78;;;;;;;13.35;100.00;100773.66;20893883;28;20053;-70
2023/03/20 11:24:49;;;;;;;6.13;3.00;;;;;;;13.63;100.00;100769.56;20893218;28;20048;-70
2023/03/20 11:34:51;;;;;;;5.80;2.42;;;;;;;14.12;93.53;100746.44;20893175;28;20049;-70
2023/03/20 11:44:59;;;;;;;3.42;1.58;;;;;;;13.79;72.45;100752.53;21086374;27;20364;-72
2023/03/20 11:55:00;;;;;;;5.10;2.10;;;;;;;14.31;72.25;100740.72;21082872;28;20082;-71
2023/03/20 12:05:01;;;;;;;3.83;1.80;;;;;;;14.69;70.51;100728.34;21078605;27;20093;-71
2023/03/20 12:15:03;;;;;;;3.30;1.63;;;;;;;15.30;68.40;100706.34;21062532;28;20047;-71
2023/03/20 12:25:04;;;;;;;6.00;2.50;;;;;;;15.44;67.54;100712.97;21065815;28;20043;-71
2023/03/20 12:35:05;;;;;;;6.15;2.50;;;;;;;14.80;68.83;100699.91;21060723;28;20036;-71
2023/03/20 12:45:08;;;;;;;6.22;2.40;;;;;;;15.10;68.69;100695.53;21055216;28;20055;-71
2023/03/20 12:55:09;;;;;;;4.88;2.10;;;;;;;15.05;68.69;100684.25;21008884;28;20048;-71
2023/03/20 13:05:10;;;;;;;5.00;2.28;;;;;;;14.66;67.14;100687.13;21005064;28;20040;-71
2023/03/20 13:15:12;;;;;;;6.43;2.05;;;;;;;14.45;67.23;100675.34;21002363;28;20044;-75
2023/03/20 13:25:15;;;;;;;4.82;1.65;;;;;;;14.60;62.33;100672.31;21001264;28;20072;-70
2023/03/20 13:35:16;;;;;;;5.15;1.48;;;;;;;13.98;62.96;100661.66;20992516;28;20581;-69
2023/03/20 13:45:17;;;;;;;5.28;1.33;;;;;;;14.57;61.24;100664.53;20996598;28;20048;-70
2023/03/20 13:55:18;;;;;;;5.25;2.30;;;;;;;14.58;61.49;100647.81;20999564;28;20044;-69
2023/03/20 14:05:21;;;;;;;6.10;1.83;;;;;;;14.40;61.88;100637.75;20993580;28;20047;-69
2023/03/20 14:15:22;;;;;;;4.22;1.75;;;;;;;14.29;61.11;100626.66;20993420;28;20663;-69
2023/03/20 14:25:23;;;;;;;6.18;2.10;;;;;;;14.31;64.30;100627.44;20997151;28;20109;-69
2023/03/20 14:35:25;;;;;;;6.07;1.90;;;;;;;14.30;65.04;100634.50;20997941;28;20524;-70
2023/03/20 14:45:27;;;;;;;5.65;2.35;;;;;;;14.33;64.08;100625.66;20996883;28;20037;-70
2023/03/20 14:55:29;;;;;;;5.63;2.00;;;;;;;14.46;65.32;100620.91;20990755;28;20040;-70
2023/03/20 15:05:30;;;;;;;4.32;1.98;;;;;;;13.93;64.81;100626.69;20989302;28;20048;-70
2023/03/20 15:15:32;;;;;;;4.60;2.00;;;;;;;13.76;65.57;100636.81;20991642;28;20073;-70
2023/03/20 15:25:33;;;;;;;5.75;1.95;;;;;;;13.92;65.17;100640.78;20986645;28;20094;-70
2023/03/20 15:35:35;;;;;;;6.85;1.80;;;;;;;13.67;65.25;100640.53;20989971;28;20481;-70
2023/03/20 15:45:37;;;;;;;5.82;1.90;;;;;;;13.40;65.82;100641.19;20990440;28;20210;-70
2023/03/20 15:55:39;;;;;;;8.20;1.83;;;;;;;13.37;67.91;100631.63;20990851;28;20048;-69
2023/03/20 16:05:40;;;;;;;6.95;1.90;;;;;;;13.24;67.46;100617.03;20989279;28;20056;-70
2023/03/20 16:15:41;;;;;;;4.88;2.00;;;;;;;13.32;66.34;100615.09;20989761;28;20131;-70
2023/03/20 16:25:43;;;;;;;5.50;1.70;;;;;;;13.18;68.29;100609.25;20994611;28;20131;-69
2023/03/20 16:35:44;;;;;;;7.95;2.30;;;;;;;12.79;70.41;100615.34;21001898;28;20721;-69
2023/03/20 16:45:45;;;;;;;7.53;2.20;;;;;;;12.66;72.49;100608.63;21005908;28;20059;-69
2023/03/20 16:55:47;;;;;;;7.47;2.30;;;;;;;12.64;73.06;100609.53;21002101;28;20056;-69
2023/03/20 17:05:48;;;;;;;5.05;2.03;;;;;;;12.33;73.30;100607.53;20977108;28;20056;-69
2023/03/20 17:15:49;;;;;;;4.45;2.00;;;;;;;12.26;73.97;100633.06;20962145;28;20118;-69
2023/03/20 17:25:51;;;;;;;6.25;1.95;;;;;;;12.13;76.43;100634.19;20984214;28;20052;-69
2023/03/20 17:35:52;;;;;;;6.65;2.03;;;;;;;12.00;77.63;100638.78;20976317;28;20047;-69
2023/03/20 17:45:54;;;;;;;7.63;2.17;;;;;;;12.00;77.09;100641.41;20983562;28;20045;-69
2023/03/20 17:55:55;;;;;;;4.80;1.73;;;;;;;11.80;74.88;100649.59;20982597;28;20077;-69
2023/03/20 18:05:56;;;;;;;6.88;2.10;;;;;;;11.65;74.47;100660.34;20984610;28;20049;-69
2023/03/20 18:15:58;;;;;;;5.60;1.65;;;;;;;11.49;74.59;100659.69;20980421;28;20101;-69
2023/03/20 18:25:59;;;;;;;4.97;1.58;;;;;;;11.53;74.75;100653.50;20988705;28;20051;-69
2023/03/20 18:36:01;;;;;;;7.80;1.55;;;;;;;11.25;83.74;100657.44;20984728;28;20048;-69
2023/03/20 18:46:02;;;;;;;4.95;2.15;;;;;;;11.18;88.51;100645.31;20977109;28;20476;-69
2023/03/20 18:56:04;;;;;;;6.25;2.10;;;;;;;11.12;87.35;100645.41;20979178;28;20485;-69
2023/03/20 19:06:05;;;;;;;4.68;2.03;;;;;;;10.99;92.44;100653.44;20980695;28;20054;-69
2023/03/20 19:16:09;;;;;;;4.67;1.70;;;;;;;10.98;89.43;100648.22;20979051;28;20842;-69
2023/03/20 19:26:11;;;;;;;6.50;2.33;;;;;;;10.93;90.99;100650.91;20978718;28;20451;-70
2023/03/20 19:36:12;;;;;;;14.20;2.35;;;;;;;10.96;84.41;100650.84;20973142;28;20109;-70
2023/03/20 19:46:15;;;;;;;8.25;2.08;;;;;;;10.83;86.07;100638.81;20975235;28;20048;-70
2023/03/20 19:56:36;;;;;;;4.90;2.40;;;;;;;10.86;87.81;100640.50;20981516;28;20045;-69
2023/03/20 20:06:37;;;;;;;5.25;2.10;;;;;;;10.80;90.16;100636.22;20988141;28;20102;-69
2023/03/20 20:16:41;;;;;;;6.35;2.03;;;;;;;10.71;92.54;100631.97;20991361;28;20058;-69
2023/03/20 20:26:43;;;;;;;9.80;2.65;;;;;;;10.64;95.01;100632.94;20989756;28;20512;-69
2023/03/20 20:36:54;;;;;;;4.45;2.10;;;;;;;10.66;93.05;100636.38;20987886;28;20131;-69
2023/03/20 20:47:16;;;;;;;7.13;2.70;;;;;;;10.63;91.70;100619.84;20988188;28;20386;-69
2023/03/20 20:57:17;;;;;;;8.52;2.50;;;;;;;10.55;93.99;100627.81;20983392;28;20137;-69
2023/03/20 21:07:18;;;;;;;12.32;5.18;;;;;;;10.46;100.00;100636.63;20990970;28;20052;-69
2023/03/20 21:17:19;;;;;;;8.80;4.75;;;;;;;10.42;100.00;100639.28;20984112;28;20040;-70
2023/03/20 21:27:21;;;;;;;10.45;4.47;;;;;;;10.39;100.00;100629.72;20989783;28;20048;-71
2023/03/20 21:37:22;;;;;;;29.88;14.50;;;;;;;10.36;100.00;100635.00;20985192;28;20052;-71
2023/03/20 21:47:43;;;;;;;13.38;5.95;;;;;;;10.32;100.00;100628.06;20988564;28;20404;-72
2023/03/20 21:58:04;;;;;;;7.13;3.38;;;;;;;10.27;100.00;100629.88;20986986;28;20059;-70
2023/03/20 22:08:26;;;;;;;6.70;3.10;;;;;;;10.28;100.00;100627.22;20985594;28;20046;-70
2023/03/20 22:18:47;;;;;;;9.77;3.20;;;;;;;10.22;100.00;100632.50;20978629;28;20404;-70
2023/03/20 22:29:08;;;;;;;9.05;3.97;;;;;;;10.13;100.00;100631.72;20980918;28;20509;-70
2023/03/20 22:39:32;;;;;;;8.52;3.53;;;;;;;10.06;100.00;100624.81;20981882;28;20083;-70
2023/03/20 22:49:53;;;;;;;7.88;3.58;;;;;;;9.96;100.00;100621.41;20981945;28;20032;-69
2023/03/20 22:59:55;;;;;;;8.45;4.95;;;;;;;9.97;100.00;100623.16;20978390;28;20049;-69
2023/03/20 23:09:57;;;;;;;11.30;4.95;;;;;;;9.97;100.00;100616.19;20992849;28;20044;-69
2023/03/20 23:19:58;;;;;;;8.68;4.50;;;;;;;9.92;100.00;100611.88;20991707;28;20063;-69
2023/03/20 23:30:15;;;;;;;10.48;5.20;;;;;;;9.86;100.00;100602.31;20990468;28;20059;-70
2023/03/20 23:40:16;;;;;;;12.07;5.15;;;;;;;9.81;100.00;100598.88;20989745;28;20052;-70
2023/03/20 23:50:17;;;;;;;10.57;5.18;;;;;;;9.72;100.00;100598.97;20988559;28;20037;-71
